Time;durP1;ratioP1;P1;durP2;ratioP2;P2;SDS_P1;SDS_P2;PMS_P1;PMS_P2;Temp;Humidity;BMP_temperature;BMP_pressure;BME280_temperature;BME280_humidity;BME280_pressure;Samples;Min_cycle;Max_cycle;Signal;HPM_P1;HPM_P2
2021/05/20 00:02:09;;;;;;;2.35;1.00;;;;;;;9.07;80.06;95663.63;4990558;28;20018;-64
2021/05/20 00:04:34;;;;;;;1.77;1.20;;;;;;;9.33;81.45;95680.06;4989081;28;20492;-64
2021/05/20 00:07:00;;;;;;;1.65;1.10;;;;;;;9.10;80.39;95668.34;4988879;28;20488;-64
2021/05/20 00:09:26;;;;;;;1.52;1.10;;;;;;;9.05;81.45;95681.69;4988898;28;20035;-64
2021/05/20 00:11:52;;;;;;;3.42;1.15;;;;;;;9.00;81.43;95665.81;4989040;28;20046;-65
2021/05/20 00:14:17;;;;;;;1.42;1.20;;;;;;;8.77;80.91;95684.06;4990301;28;20114;-64
2021/05/20 00:16:42;;;;;;;1.60;1.10;;;;;;;9.01;82.06;95670.84;4987518;28;20031;-64
2021/05/20 00:19:08;;;;;;;3.17;1.10;;;;;;;8.82;80.30;95676.06;4988910;28;20570;-64
2021/05/20 00:21:34;;;;;;;1.52;1.13;;;;;;;8.83;80.45;95685.59;4988897;28;20045;-64
2021/05/20 00:23:59;;;;;;;1.67;1.25;;;;;;;8.63;80.62;95672.50;4988543;28;20141;-64
2021/05/20 00:26:25;;;;;;;1.52;1.20;;;;;;;8.79;79.78;95667.84;4990641;28;20088;-64
2021/05/20 00:28:50;;;;;;;2.10;1.13;;;;;;;8.51;79.53;95667.56;4989027;28;20031;-65
2021/05/20 00:31:15;;;;;;;4.13;1.50;;;;;;;8.21;81.42;95670.41;4989085;28;20062;-65
2021/05/20 00:33:41;;;;;;;1.90;1.23;;;;;;;8.57;81.49;95668.31;4989195;28;20077;-65
2021/05/20 00:36:06;;;;;;;2.40;1.20;;;;;;;8.55;80.53;95681.06;4991254;28;20035;-64
2021/05/20 00:38:32;;;;;;;1.77;1.05;;;;;;;8.69;81.02;95692.59;4992540;28;20464;-64
2021/05/20 00:40:59;;;;;;;1.70;1.13;;;;;;;8.14;82.49;95685.81;4994424;28;20026;-65
2021/05/20 00:43:25;;;;;;;1.83;1.05;;;;;;;8.45;81.93;95691.75;4991788;28;20100;-64
2021/05/20 00:45:51;;;;;;;1.70;1.23;;;;;;;8.25;83.18;95697.94;4991371;28;20133;-66
2021/05/20 00:48:16;;;;;;;1.15;1.08;;;;;;;8.42;82.73;95687.78;4992562;28;20567;-66
2021/05/20 00:50:42;;;;;;;1.58;1.48;;;;;;;8.17;83.38;95703.81;4992584;28;20027;-66
2021/05/20 00:53:07;;;;;;;2.78;1.10;;;;;;;7.82;85.42;95679.09;4992455;28;20500;-64
2021/05/20 00:55:34;;;;;;;1.42;1.30;;;;;;;8.01;84.63;95679.28;4991996;28;20484;-64
2021/05/20 00:58:01;;;;;;;1.73;1.30;;;;;;;8.13;84.24;95692.97;4990807;28;20030;-65
2021/05/20 01:00:27;;;;;;;2.20;1.10;;;;;;;8.36;83.79;95701.31;4992142;28;20514;-65
2021/05/20 01:02:52;;;;;;;2.30;1.30;;;;;;;8.21;83.10;95671.19;4991781;28;20404;-63
2021/05/20 01:05:18;;;;;;;1.38;1.27;;;;;;;8.46;83.32;95694.13;4993682;28;20046;-65
2021/05/20 01:07:43;;;;;;;1.90;1.50;;;;;;;8.25;83.30;95693.44;4992023;28;20407;-64
2021/05/20 01:10:10;;;;;;;1.48;1.30;;;;;;;8.26;83.90;95697.66;4992155;28;20176;-65
2021/05/20 01:12:35;;;;;;;4.45;1.25;;;;;;;8.20;83.66;95703.28;4991596;28;20615;-65
2021/05/20 01:15:02;;;;;;;2.63;1.38;;;;;;;8.17;84.61;95699.31;4991847;28;20121;-64
2021/05/20 01:17:27;;;;;;;3.78;1.20;;;;;;;8.12;84.43;95669.41;4993740;28;20033;-65
2021/05/20 01:19:53;;;;;;;1.80;1.42;;;;;;;8.20;84.43;95701.44;4991798;28;20396;-65
2021/05/20 01:22:18;;;;;;;1.20;1.10;;;;;;;7.98;85.50;95693.06;4991479;28;20124;-65
2021/05/20 01:24:45;;;;;;;1.35;1.10;;;;;;;8.24;84.71;95704.28;4991933;28;20051;-67
2021/05/20 01:27:12;;;;;;;5.32;1.20;;;;;;;8.19;84.13;95701.69;4991889;28;20096;-64
2021/05/20 01:29:41;;;;;;;1.27;1.17;;;;;;;8.29;84.28;95707.72;4991774;28;20061;-65
2021/05/20 01:32:08;;;;;;;1.80;1.10;;;;;;;8.03;84.49;95685.88;4993148;28;20038;-65
2021/05/20 01:34:34;;;;;;;2.53;1.23;;;;;;;7.85;86.93;95699.75;4991480;28;20061;-66
2021/05/20 01:37:08;;;;;;;1.80;1.17;;;;;;;8.17;85.50;95709.91;4991486;28;20066;-65
2021/05/20 01:39:35;;;;;;;1.10;1.00;;;;;;;8.17;84.36;95682.63;4991567;28;20078;-64
2021/05/20 01:42:00;;;;;;;1.20;1.10;;;;;;;8.36;84.06;95701.31;4991461;28;20088;-64
2021/05/20 01:44:26;;;;;;;1.25;1.10;;;;;;;8.39;83.39;95671.63;4992454;28;20039;-65
2021/05/20 01:46:51;;;;;;;1.50;1.15;;;;;;;8.75;81.77;95703.97;4991429;28;20448;-65
2021/05/20 01:49:16;;;;;;;1.30;1.13;;;;;;;8.28;82.85;95700.81;4991403;28;20101;-64
2021/05/20 01:51:42;;;;;;;1.05;0.95;;;;;;;8.51;83.05;95680.81;4991332;28;20435;-64
2021/05/20 01:54:08;;;;;;;2.05;1.00;;;;;;;8.94;81.99;95706.72;4990532;28;20078;-64
2021/05/20 01:56:36;;;;;;;1.27;1.17;;;;;;;8.83;81.04;95706.03;4990916;28;20022;-64
2021/05/20 01:59:06;;;;;;;1.13;1.02;;;;;;;9.02;81.80;95704.28;4992802;28;20079;-64
2021/05/20 02:01:33;;;;;;;1.35;0.90;;;;;;;8.85;81.00;95695.91;4990994;28;20141;-63
2021/05/20 02:03:58;;;;;;;2.67;0.90;;;;;;;8.88;80.90;95705.19;4990253;28;20042;-63
2021/05/20 02:06:24;;;;;;;0.85;0.85;;;;;;;9.03;81.68;95705.06;4990786;28;20050;-64
2021/05/20 02:08:49;;;;;;;1.45;0.70;;;;;;;9.14;81.09;95714.50;4990911;28;20463;-65
2021/05/20 02:11:15;;;;;;;1.77;0.93;;;;;;;9.07;82.07;95690.94;4992530;28;20018;-64
2021/05/20 02:13:40;;;;;;;2.22;1.05;;;;;;;9.14;79.25;95714.50;4990233;28;20046;-64
2021/05/20 02:16:06;;;;;;;2.05;1.35;;;;;;;9.12;81.30;95690.13;4990556;28;20031;-64
2021/05/20 02:18:32;;;;;;;0.80;0.70;;;;;;;9.24;81.13;95701.13;4990555;28;20038;-64
2021/05/20 02:20:57;;;;;;;2.65;0.88;;;;;;;9.16;81.89;95672.53;4990595;28;20069;-65
2021/05/20 02:23:23;;;;;;;1.58;1.00;;;;;;;9.42;82.13;95702.28;4991879;28;20468;-64
2021/05/20 02:25:48;;;;;;;1.33;0.93;;;;;;;9.23;79.97;95710.16;4990346;28;20570;-65
2021/05/20 02:28:14;;;;;;;1.27;0.82;;;;;;;9.26;80.46;95706.94;4990256;28;20042;-64
2021/05/20 02:30:40;;;;;;;1.60;1.40;;;;;;;9.10;79.22;95701.00;4990255;28;20425;-64
2021/05/20 02:33:05;;;;;;;0.88;0.85;;;;;;;9.10;80.22;95702.84;4988486;28;20045;-64
2021/05/20 02:35:30;;;;;;;1.55;1.08;;;;;;;9.04;80.97;95680.09;4990199;28;20037;-64
2021/05/20 02:37:56;;;;;;;0.88;0.88;;;;;;;8.87;79.39;95695.66;4992090;28;20022;-64
2021/05/20 02:40:21;;;;;;;1.33;1.00;;;;;;;8.84;80.39;95699.66;4989942;28;20034;-64
2021/05/20 02:42:47;;;;;;;2.92;1.10;;;;;;;8.90;80.26;95703.03;4989571;28;20034;-64
2021/05/20 02:45:21;;;;;;;1.25;0.90;;;;;;;8.81;81.11;95708.97;4989888;28;20066;-64
2021/05/20 02:47:48;;;;;;;1.25;0.95;;;;;;;8.70;80.75;95704.81;4990154;28;20057;-64
2021/05/20 02:50:14;;;;;;;4.32;1.30;;;;;;;8.55;80.98;95712.91;4992011;28;20026;-64
2021/05/20 02:52:44;;;;;;;1.17;0.88;;;;;;;8.34;81.17;95704.22;4989090;28;20034;-63
2021/05/20 02:55:14;;;;;;;1.10;1.00;;;;;;;8.50;81.50;95703.13;4988643;28;20043;-64
2021/05/20 02:57:42;;;;;;;3.70;1.20;;;;;;;8.40;81.67;95694.44;4989065;28;20034;-64
2021/05/20 03:00:10;;;;;;;1.15;1.00;;;;;;;8.25;82.91;95695.31;4989865;28;20046;-65
2021/05/20 03:02:35;;;;;;;1.30;0.88;;;;;;;8.39;82.32;95690.19;4989295;28;20487;-65
2021/05/20 03:05:00;;;;;;;1.13;0.77;;;;;;;8.60;82.39;95707.56;4991653;28;20057;-64
2021/05/20 03:07:26;;;;;;;1.70;0.93;;;;;;;8.74;82.53;95705.03;4989768;28;20027;-64
2021/05/20 03:09:51;;;;;;;2.85;1.38;;;;;;;8.67;81.00;95705.38;4989682;28;20034;-65
2021/05/20 03:12:17;;;;;;;2.67;0.95;;;;;;;8.63;80.94;95699.03;4989177;28;20192;-65
2021/05/20 03:14:42;;;;;;;2.05;1.17;;;;;;;8.66;81.62;95690.53;4989646;28;20026;-64
2021/05/20 03:17:11;;;;;;;1.88;1.00;;;;;;;8.59;79.78;95705.94;4991383;28;20030;-64
2021/05/20 03:19:38;;;;;;;1.90;1.10;;;;;;;8.58;80.49;95707.03;4989591;28;20110;-65
2021/05/20 03:22:03;;;;;;;2.70;0.85;;;;;;;8.64;81.29;95697.94;4989462;28;20039;-65
2021/05/20 03:24:29;;;;;;;1.27;0.82;;;;;;;8.65;81.29;95707.50;4988807;28;20129;-64
2021/05/20 03:26:55;;;;;;;1.40;0.93;;;;;;;8.68;81.31;95698.97;4989415;28;20566;-65
2021/05/20 03:29:20;;;;;;;0.95;0.70;;;;;;;8.61;80.68;95703.03;4991360;28;20057;-65
2021/05/20 03:31:45;;;;;;;2.25;1.05;;;;;;;8.77;81.41;95707.94;4989608;28;20034;-65
2021/05/20 03:34:11;;;;;;;1.42;0.80;;;;;;;8.89;81.82;95704.13;4989115;28;20453;-64
2021/05/20 03:36:36;;;;;;;0.85;0.60;;;;;;;8.63;80.31;95701.69;4989156;28;20042;-65
2021/05/20 03:39:03;;;;;;;1.83;0.70;;;;;;;8.85;79.62;95711.84;4989454;28;20038;-64
2021/05/20 03:41:28;;;;;;;2.08;0.70;;;;;;;9.07;79.82;95698.13;4989115;28;20053;-65
2021/05/20 03:43:54;;;;;;;1.98;0.88;;;;;;;9.28;79.50;95699.50;4991007;28;20026;-65
2021/05/20 03:46:20;;;;;;;1.17;0.80;;;;;;;9.49;78.46;95708.03;4989142;28;20558;-65
2021/05/20 03:48:46;;;;;;;1.33;0.70;;;;;;;9.56;77.87;95710.34;4989251;28;20038;-66
2021/05/20 03:51:11;;;;;;;1.88;0.80;;;;;;;9.49;76.04;95713.34;4989241;28;20030;-64
2021/05/20 03:53:36;;;;;;;2.85;0.57;;;;;;;9.47;75.40;95710.19;4988755;28;20026;-64
2021/05/20 03:56:02;;;;;;;2.15;0.52;;;;;;;9.42;75.10;95712.91;4990883;28;20030;-65
2021/05/20 03:58:28;;;;;;;1.80;0.60;;;;;;;9.84;77.15;95712.16;4989307;28;20121;-65
2021/05/20 04:00:53;;;;;;;0.88;0.43;;;;;;;10.24;77.07;95696.78;4989211;28;20096;-65
2021/05/20 04:03:30;;;;;;;2.08;0.70;;;;;;;10.72;73.16;95717.84;4988921;28;20034;-64
2021/05/20 04:05:57;;;;;;;1.42;0.60;;;;;;;10.29;71.57;95698.56;4988976;28;20566;-65
2021/05/20 04:08:22;;;;;;;0.80;0.50;;;;;;;10.81;71.37;95716.13;4991324;28;20015;-65
2021/05/20 04:10:49;;;;;;;5.03;0.60;;;;;;;9.53;74.33;95727.66;4993132;28;20408;-66
2021/05/20 04:13:29;;;;;;;1.08;0.40;;;;;;;10.06;74.03;95726.75;4992781;28;20037;-65
2021/05/20 04:15:55;;;;;;;2.38;0.50;;;;;;;9.44;75.71;95731.19;4993168;28;20043;-65
2021/05/20 04:18:20;;;;;;;1.48;0.75;;;;;;;9.53;74.61;95719.69;4992987;28;20141;-64
2021/05/20 04:20:47;;;;;;;2.22;0.63;;;;;;;8.95;76.49;95644.63;4992921;28;20029;-64
2021/05/20 04:23:12;;;;;;;1.83;0.70;;;;;;;9.53;76.38;95738.28;4994275;28;20061;-64
2021/05/20 04:25:37;;;;;;;1.50;1.05;;;;;;;9.05;78.36;95740.06;4992742;28;20711;-65
2021/05/20 04:28:03;;;;;;;1.40;0.68;;;;;;;8.91;78.41;95750.53;4992798;28;20039;-64
2021/05/20 04:30:29;;;;;;;1.70;1.00;;;;;;;9.01;78.34;95745.16;4992486;28;20515;-65
2021/05/20 04:32:54;;;;;;;0.80;0.77;;;;;;;8.88;78.74;95752.94;4992249;28;20113;-66
2021/05/20 04:35:20;;;;;;;5.00;1.30;;;;;;;9.07;78.19;95746.69;4994343;28;20121;-65
2021/05/20 04:37:45;;;;;;;2.10;1.13;;;;;;;9.34;77.06;95740.06;4992769;28;20357;-65
2021/05/20 04:40:11;;;;;;;1.95;0.90;;;;;;;9.59;76.97;95749.63;4992613;28;20396;-65
2021/05/20 04:42:37;;;;;;;1.27;0.80;;;;;;;9.61;75.65;95728.88;4991980;28;20030;-65
2021/05/20 04:45:03;;;;;;;0.95;0.90;;;;;;;10.23;75.58;95732.34;4992274;28;20042;-65
2021/05/20 04:47:28;;;;;;;5.25;1.17;;;;;;;10.22;73.28;95745.94;4992169;28;20447;-64
2021/05/20 04:49:53;;;;;;;2.80;0.98;;;;;;;10.02;72.32;95731.06;4993994;28;20030;-65
2021/05/20 04:52:19;;;;;;;1.48;0.93;;;;;;;9.38;75.50;95746.41;4991869;28;20500;-64
2021/05/20 04:54:44;;;;;;;1.70;1.17;;;;;;;9.42;76.00;95743.94;4991898;28;20073;-65
2021/05/20 04:57:10;;;;;;;2.30;1.83;;;;;;;8.71;78.99;95767.41;4991784;28;20034;-64
2021/05/20 04:59:35;;;;;;;1.48;1.10;;;;;;;8.92;77.91;95752.13;4992019;28;20404;-64
2021/05/20 05:02:00;;;;;;;1.42;1.05;;;;;;;9.22;77.35;95740.44;4994006;28;20030;-65
2021/05/20 05:04:26;;;;;;;1.95;1.17;;;;;;;9.00;77.32;95774.59;4991818;28;20118;-66
2021/05/20 05:06:51;;;;;;;1.15;1.05;;;;;;;9.13;77.02;95768.66;4991837;28;20038;-65
2021/05/20 05:09:16;;;;;;;1.35;0.98;;;;;;;8.40;79.80;95763.38;4992047;28;20031;-65
2021/05/20 05:11:42;;;;;;;1.23;1.10;;;;;;;8.77;80.10;95776.91;4991888;28;20026;-64
2021/05/20 05:14:07;;;;;;;3.42;1.48;;;;;;;8.84;78.66;95781.88;4993166;28;20070;-65
2021/05/20 05:16:32;;;;;;;1.75;1.40;;;;;;;9.08;77.97;95763.41;4991716;28;20033;-65
2021/05/20 05:18:58;;;;;;;1.45;1.10;;;;;;;9.63;76.61;95788.63;4991525;28;20054;-65
2021/05/20 05:21:23;;;;;;;1.65;1.33;;;;;;;9.68;76.00;95790.44;4989987;28;20165;-65
2021/05/20 05:23:48;;;;;;;1.48;1.20;;;;;;;9.30;77.72;95790.25;4991178;28;20042;-64
2021/05/20 05:26:14;;;;;;;3.13;1.58;;;;;;;9.41;76.59;95784.84;4993411;28;20037;-64
2021/05/20 05:28:39;;;;;;;2.00;1.10;;;;;;;9.30;76.22;95790.25;4991769;28;20042;-64
2021/05/20 05:31:05;;;;;;;1.67;1.20;;;;;;;8.79;78.07;95785.34;4991393;28;20042;-65
2021/05/20 05:33:30;;;;;;;2.13;1.40;;;;;;;9.25;77.07;95795.63;4990909;28;20411;-65
2021/05/20 05:35:56;;;;;;;1.90;1.05;;;;;;;10.17;74.71;95792.00;4991385;28;20038;-64
2021/05/20 05:38:21;;;;;;;0.77;0.65;;;;;;;9.39;73.15;95766.56;4993452;28;20029;-70
2021/05/20 05:40:47;;;;;;;1.15;1.05;;;;;;;10.02;72.84;95800.16;4991017;28;20392;-66
2021/05/20 05:43:12;;;;;;;1.20;1.02;;;;;;;10.22;72.16;95813.19;4991063;28;20121;-67
2021/05/20 05:45:38;;;;;;;2.30;1.20;;;;;;;10.82;71.58;95788.75;4988872;28;20061;-65
2021/05/20 05:48:05;;;;;;;1.15;0.80;;;;;;;11.02;69.75;95803.63;4988581;28;20121;-64
2021/05/20 05:50:30;;;;;;;1.50;1.15;;;;;;;10.29;72.40;95811.03;4985567;28;20034;-64
2021/05/20 05:52:57;;;;;;;2.00;1.33;;;;;;;9.74;73.70;95815.09;4992368;28;20088;-63
2021/05/20 05:55:22;;;;;;;1.75;1.27;;;;;;;9.62;73.42;95824.25;4990846;28;20054;-63
2021/05/20 05:57:47;;;;;;;3.22;1.20;;;;;;;10.41;71.17;95810.63;4991099;28;20046;-63
2021/05/20 06:00:13;;;;;;;2.22;1.13;;;;;;;10.20;72.28;95823.34;4991107;28;20105;-63
2021/05/20 06:02:39;;;;;;;2.00;1.15;;;;;;;10.68;70.70;95826.72;4990835;28;20022;-63
2021/05/20 06:05:05;;;;;;;1.40;0.98;;;;;;;9.75;71.55;95795.41;4992720;28;20022;-67
2021/05/20 06:07:35;;;;;;;1.55;1.20;;;;;;;10.51;70.56;95823.00;4991110;28;20042;-66
2021/05/20 06:10:04;;;;;;;2.72;1.10;;;;;;;11.17;68.96;95835.34;4991159;28;20062;-66
2021/05/20 06:12:30;;;;;;;2.75;1.00;;;;;;;10.84;69.70;95834.50;4990556;28;20089;-63
2021/05/20 06:14:55;;;;;;;1.60;1.10;;;;;;;11.08;69.00;95826.44;4990822;28;20042;-65
2021/05/20 06:17:20;;;;;;;2.40;1.15;;;;;;;11.27;68.06;95821.09;4992671;28;20026;-67
2021/05/20 06:19:46;;;;;;;2.78;0.90;;;;;;;11.45;67.73;95836.22;4990933;28;20034;-66
2021/05/20 06:22:11;;;;;;;1.35;1.05;;;;;;;10.97;68.79;95828.47;4990209;28;20039;-65
2021/05/20 06:24:36;;;;;;;3.53;1.30;;;;;;;10.84;69.40;95829.97;4990485;28;20396;-65
2021/05/20 06:27:02;;;;;;;2.92;0.98;;;;;;;12.06;66.61;95837.03;4990310;28;20455;-67
2021/05/20 06:29:27;;;;;;;3.63;1.05;;;;;;;11.48;66.09;95834.84;4993240;28;20170;-69
2021/05/20 06:31:53;;;;;;;1.52;1.00;;;;;;;11.24;67.21;95841.09;4989575;28;20057;-65
2021/05/20 06:34:18;;;;;;;3.25;1.00;;;;;;;11.91;65.87;95827.44;4989497;28;20055;-68
2021/05/20 06:36:45;;;;;;;1.98;1.10;;;;;;;11.02;67.96;95832.91;4990574;28;20546;-65
2021/05/20 06:39:10;;;;;;;1.05;1.05;;;;;;;11.71;67.26;95840.03;4990426;28;20420;-65
2021/05/20 06:41:35;;;;;;;1.60;1.00;;;;;;;11.06;67.34;95839.25;4990161;28;20037;-66
2021/05/20 06:44:01;;;;;;;1.13;0.90;;;;;;;11.11;67.62;95825.88;4991249;28;20077;-66
2021/05/20 06:46:26;;;;;;;1.25;0.90;;;;;;;10.29;68.92;95853.56;4989250;28;20050;-64
2021/05/20 06:48:51;;;;;;;1.95;1.00;;;;;;;10.68;68.14;95847.22;4989571;28;20042;-64
2021/05/20 06:51:17;;;;;;;0.88;0.88;;;;;;;11.54;67.32;95842.47;4990001;28;20041;-67
2021/05/20 06:53:44;;;;;;;1.10;0.98;;;;;;;11.32;65.14;95843.09;4989619;28;20026;-66
2021/05/20 06:56:14;;;;;;;1.05;0.77;;;;;;;11.92;64.19;95821.03;4991369;28;20030;-66
2021/05/20 07:01:24;;;;;;;1.10;1.00;;;;;;;11.03;66.99;95847.81;4989812;28;20073;-64
2021/05/20 07:03:49;;;;;;;2.45;0.85;;;;;;;11.19;67.08;95855.28;4987886;28;20038;-65
2021/05/20 07:06:15;;;;;;;1.00;0.85;;;;;;;10.27;69.37;95865.56;4989576;28;20034;-65
2021/05/20 07:08:41;;;;;;;1.95;0.90;;;;;;;9.75;71.11;95859.97;4989537;28;20080;-66
2021/05/20 07:11:06;;;;;;;1.83;1.10;;;;;;;9.57;70.88;95861.47;4991415;28;20026;-66
2021/05/20 07:13:33;;;;;;;1.88;1.00;;;;;;;9.75;71.03;95869.81;4989043;28;20130;-65
2021/05/20 07:15:58;;;;;;;2.08;0.80;;;;;;;10.13;68.97;95865.41;4989289;28;20038;-66
2021/05/20 07:18:24;;;;;;;1.13;0.90;;;;;;;10.74;67.08;95858.59;4989379;28;20610;-67
2021/05/20 07:20:49;;;;;;;1.63;0.82;;;;;;;11.97;64.64;95863.59;4989497;28;20713;-68
2021/05/20 07:23:17;;;;;;;2.28;0.65;;;;;;;11.71;64.50;95852.56;4990784;28;20049;-68
2021/05/20 07:25:43;;;;;;;2.20;0.90;;;;;;;11.81;63.54;95848.94;4988968;28;20046;-68
2021/05/20 07:28:10;;;;;;;1.20;0.75;;;;;;;12.03;62.48;95850.97;4989235;28;20291;-70
2021/05/20 07:30:36;;;;;;;0.95;0.95;;;;;;;13.32;60.72;95851.47;4989166;28;20042;-66
2021/05/20 07:33:02;;;;;;;1.70;0.93;;;;;;;14.34;59.45;95835.50;4987672;28;20040;-73
2021/05/20 07:35:27;;;;;;;2.10;0.88;;;;;;;13.27;56.80;95840.91;4989755;28;20065;-67
2021/05/20 07:37:53;;;;;;;2.17;0.70;;;;;;;12.51;58.62;95847.91;4989079;28;20066;-67
2021/05/20 07:40:19;;;;;;;0.60;0.52;;;;;;;13.70;56.61;95833.16;4989261;28;20042;-67
2021/05/20 07:42:46;;;;;;;0.77;0.68;;;;;;;12.51;57.14;95839.91;4987180;28;20046;-66
2021/05/20 07:45:12;;;;;;;1.25;0.50;;;;;;;11.97;60.84;95842.25;4988909;28;20054;-66
2021/05/20 07:47:40;;;;;;;1.05;0.80;;;;;;;12.16;59.72;95824.31;4988853;28;20054;-70
2021/05/20 07:50:07;;;;;;;1.02;0.60;;;;;;;11.06;62.27;95829.41;4990959;28;20054;-72
2021/05/20 07:52:32;;;;;;;0.88;0.68;;;;;;;10.97;65.49;95830.34;4989045;28;20046;-67
2021/05/20 07:54:58;;;;;;;0.70;0.70;;;;;;;11.38;68.08;95862.44;4988920;28;20046;-67
2021/05/20 07:57:23;;;;;;;1.42;0.73;;;;;;;10.98;69.16;95858.53;4989106;28;20083;-68
2021/05/20 07:59:50;;;;;;;1.77;0.80;;;;;;;10.08;71.12;95847.69;4989218;28;20533;-68
2021/05/20 08:04:52;;;;;;;1.30;0.70;;;;;;;11.05;70.04;95845.63;4988865;28;20053;-68
2021/05/20 08:12:44;;;;;;;0.70;0.60;;;;;;;10.47;73.86;95844.03;4988726;28;20496;-67
2021/05/20 08:15:10;;;;;;;0.55;0.50;;;;;;;10.63;72.44;95853.41;4988929;28;20042;-67
2021/05/20 08:17:36;;;;;;;0.65;0.65;;;;;;;10.57;71.87;95853.75;4988919;28;20027;-67
2021/05/20 08:20:02;;;;;;;1.17;0.70;;;;;;;11.45;67.76;95849.53;4990334;28;20019;-67
2021/05/20 08:22:27;;;;;;;1.65;0.50;;;;;;;11.70;66.74;95838.44;4988484;28;20049;-67
2021/05/20 08:24:56;;;;;;;1.27;0.90;;;;;;;11.21;66.22;95841.69;4987189;28;20125;-67
2021/05/20 08:27:21;;;;;;;0.90;0.77;;;;;;;11.07;67.24;95856.81;4987497;28;20046;-66
2021/05/20 08:29:46;;;;;;;0.57;0.40;;;;;;;11.07;65.90;95852.28;4988876;28;20054;-67
2021/05/20 08:32:12;;;;;;;3.33;0.40;;;;;;;11.62;64.11;95855.13;4990172;28;20527;-67
2021/05/20 08:34:37;;;;;;;1.45;0.50;;;;;;;11.65;63.29;95846.53;4988469;28;20035;-66
2021/05/20 08:37:03;;;;;;;0.90;0.40;;;;;;;12.41;61.33;95836.34;4988552;28;20030;-65
2021/05/20 08:39:29;;;;;;;0.75;0.57;;;;;;;12.48;60.26;95842.06;4988403;28;20129;-67
2021/05/20 08:41:54;;;;;;;1.65;0.47;;;;;;;12.17;62.01;95849.88;4988594;28;20046;-68
2021/05/20 08:44:24;;;;;;;0.40;0.40;;;;;;;12.67;60.84;95841.16;4989802;28;20027;-68
2021/05/20 08:46:50;;;;;;;0.50;0.50;;;;;;;11.92;62.79;95827.16;4988456;28;20035;-68
2021/05/20 08:49:15;;;;;;;0.88;0.63;;;;;;;11.29;61.87;95854.31;4987074;28;20519;-67
2021/05/20 08:51:42;;;;;;;0.80;0.60;;;;;;;11.34;62.01;95838.25;4988692;28;20066;-67
2021/05/20 08:54:08;;;;;;;0.30;0.30;;;;;;;11.96;61.34;95840.69;4988077;28;20074;-67
2021/05/20 08:56:33;;;;;;;0.40;0.40;;;;;;;11.84;61.23;95845.72;4990410;28;20503;-67
2021/05/20 08:58:59;;;;;;;0.65;0.38;;;;;;;11.23;60.97;95830.75;4993821;28;20022;-67
2021/05/20 09:01:39;;;;;;;5.10;0.30;;;;;;;9.97;69.07;95880.72;4991941;28;20042;-67
2021/05/20 09:04:06;;;;;;;7.15;1.42;;;;;;;9.77;74.04;95851.69;4991530;28;20030;-66
2021/05/20 09:06:48;;;;;;;1.52;1.10;;;;;;;9.86;77.90;95866.75;4990598;28;20440;-66
2021/05/20 09:09:18;;;;;;;3.60;1.40;;;;;;;10.33;78.14;95865.22;4991880;28;20130;-65
2021/05/20 09:11:58;;;;;;;1.77;1.58;;;;;;;10.86;80.40;95861.63;4991657;28;20026;-66
2021/05/20 09:14:31;;;;;;;2.05;1.50;;;;;;;11.05;80.72;95824.34;4991794;28;20045;-66
2021/05/20 09:17:11;;;;;;;4.88;1.88;;;;;;;11.45;76.96;95853.00;4992246;28;20038;-66
2021/05/20 09:19:38;;;;;;;3.10;1.90;;;;;;;11.66;80.55;95832.13;4990196;28;20045;-65
2021/05/20 09:22:14;;;;;;;2.47;1.40;;;;;;;11.24;74.76;95856.28;4990069;28;20053;-65
2021/05/20 09:24:59;;;;;;;4.68;1.20;;;;;;;10.70;74.12;95847.75;4989874;28;20117;-66
2021/05/20 09:27:37;;;;;;;2.78;1.20;;;;;;;10.51;77.06;95842.41;4989909;28;20081;-67
2021/05/20 09:30:14;;;;;;;3.42;1.38;;;;;;;11.06;77.30;95844.59;4991415;28;20038;-67
2021/05/20 09:32:57;;;;;;;2.28;1.00;;;;;;;11.29;76.01;95834.91;4989612;28;20023;-66
2021/05/20 09:35:28;;;;;;;1.40;1.10;;;;;;;11.73;74.85;95836.31;4993099;28;20054;-67
2021/05/20 09:38:06;;;;;;;5.38;1.70;;;;;;;12.92;73.54;95823.78;4991811;28;20100;-68
2021/05/20 09:40:34;;;;;;;0.90;0.90;;;;;;;12.81;71.81;95839.25;4991457;28;20058;-67
2021/05/20 09:42:59;;;;;;;0.60;0.60;;;;;;;13.19;71.24;95828.25;4990825;28;20049;-68
2021/05/20 09:45:27;;;;;;;0.50;0.50;;;;;;;12.17;68.37;95833.88;4991094;28;20403;-68
2021/05/20 09:48:04;;;;;;;1.88;0.43;;;;;;;11.53;68.75;95816.13;4991018;28;20476;-68
2021/05/20 09:50:31;;;;;;;0.70;0.40;;;;;;;11.57;64.89;95812.59;4991227;28;20073;-67
2021/05/20 09:53:01;;;;;;;0.50;0.40;;;;;;;11.15;66.41;95813.53;4992514;28;20050;-68
2021/05/20 09:55:28;;;;;;;3.15;0.30;;;;;;;10.91;67.58;95806.47;4990713;28;20055;-68
2021/05/20 09:57:56;;;;;;;1.23;0.32;;;;;;;11.17;65.06;95822.03;4990864;28;20129;-68
2021/05/20 10:00:26;;;;;;;0.50;0.40;;;;;;;12.13;65.36;95814.25;4990661;28;20038;-67
2021/05/20 10:03:06;;;;;;;0.40;0.40;;;;;;;13.68;62.57;95819.31;4990456;28;20480;-70
2021/05/20 10:05:34;;;;;;;2.35;0.50;;;;;;;14.21;62.78;95804.28;4990664;28;20030;-68
2021/05/20 10:08:03;;;;;;;1.23;0.70;;;;;;;14.35;60.62;95817.53;4992570;28;20023;-68
2021/05/20 10:10:29;;;;;;;0.30;0.30;;;;;;;12.74;60.58;95846.88;4990464;28;20050;-68
2021/05/20 10:12:54;;;;;;;1.55;0.28;;;;;;;11.99;61.75;95839.31;4990195;28;20147;-68
2021/05/20 10:15:23;;;;;;;1.08;0.30;;;;;;;12.23;62.64;95845.22;4990250;28;20408;-67
2021/05/20 10:17:50;;;;;;;0.45;0.38;;;;;;;11.81;66.93;95840.94;4990572;28;20037;-69
2021/05/20 10:20:21;;;;;;;0.70;0.45;;;;;;;12.74;67.83;95829.00;4992541;28;20045;-69
2021/05/20 10:22:49;;;;;;;0.37;0.37;;;;;;;12.70;64.96;95838.69;4990225;28;20149;-68
2021/05/20 10:25:14;;;;;;;0.40;0.40;;;;;;;12.60;65.68;95852.25;4990209;28;20038;-63
2021/05/20 10:27:41;;;;;;;1.35;0.30;;;;;;;12.23;67.07;95819.38;4988717;28;20527;-63
2021/05/20 10:30:09;;;;;;;1.02;0.47;;;;;;;12.55;68.57;95822.22;4990100;28;20476;-62
2021/05/20 10:32:35;;;;;;;2.05;0.40;;;;;;;11.65;66.23;95835.09;4989675;28;20037;-63
2021/05/20 10:35:12;;;;;;;1.35;0.38;;;;;;;12.12;66.18;95839.31;4991713;28;20041;-61
2021/05/20 10:37:42;;;;;;;1.25;0.30;;;;;;;11.14;64.40;95820.72;4989568;28;20045;-65
2021/05/20 10:40:23;;;;;;;2.05;0.50;;;;;;;11.94;63.69;95817.00;4989970;28;20060;-65
2021/05/20 10:43:20;;;;;;;0.10;0.10;;;;;;;12.30;62.15;95834.19;4989611;28;20061;-66
2021/05/20 10:46:01;;;;;;;0.68;0.20;;;;;;;12.97;61.36;95821.00;4988190;28;20070;-66
2021/05/20 10:48:27;;;;;;;0.73;0.20;;;;;;;13.09;59.40;95810.56;4989733;28;20039;-66
2021/05/20 10:50:56;;;;;;;0.77;0.10;;;;;;;12.67;56.74;95835.81;4989927;28;20045;-65
2021/05/20 10:53:40;;;;;;;0.20;0.10;;;;;;;12.98;58.37;95818.03;4991183;28;20029;-66
2021/05/20 10:56:09;;;;;;;0.25;0.08;;;;;;;13.41;58.24;95798.91;4989934;28;20069;-66
2021/05/20 10:58:36;;;;;;;1.45;0.20;;;;;;;13.78;55.28;95813.72;4988403;28;20038;-66
2021/05/20 11:01:06;;;;;;;2.85;0.20;;;;;;;14.13;54.01;95813.84;4989893;28;20048;-67
2021/05/20 11:03:55;;;;;;;0.65;0.10;;;;;;;15.02;52.98;95814.50;4988143;28;20133;-66
2021/05/20 11:06:43;;;;;;;0.90;0.30;;;;;;;13.50;55.46;95818.41;4989594;28;20411;-66
2021/05/20 11:09:10;;;;;;;0.17;0.17;;;;;;;11.70;65.14;95835.00;4988152;28;20389;-66
2021/05/20 11:11:39;;;;;;;1.58;0.20;;;;;;;10.73;73.61;95847.16;4989769;28;20022;-66
2021/05/20 11:14:14;;;;;;;0.52;0.25;;;;;;;10.39;74.21;95845.47;4991030;28;20022;-66
2021/05/20 11:16:44;;;;;;;7.43;0.43;;;;;;;10.02;78.80;95854.09;4989498;28;20562;-65
2021/05/20 11:21:59;;;;;;;1.95;0.40;;;;;;;11.48;76.17;95825.00;4989573;28;20046;-66
2021/05/20 11:24:28;;;;;;;2.30;0.38;;;;;;;11.59;72.07;95814.94;4988933;28;20134;-67
2021/05/20 11:26:55;;;;;;;0.50;0.30;;;;;;;12.04;70.30;95802.69;4988030;28;20506;-67
2021/05/20 11:29:32;;;;;;;0.57;0.30;;;;;;;12.42;70.71;95815.78;4991099;28;20023;-67
2021/05/20 11:32:11;;;;;;;1.38;0.20;;;;;;;11.54;67.01;95789.19;4985087;28;20046;-67
2021/05/20 11:34:59;;;;;;;0.63;0.10;;;;;;;12.59;67.24;95815.97;4987343;28;20030;-67
2021/05/20 11:37:30;;;;;;;0.30;0.20;;;;;;;12.40;67.10;95812.63;4989190;28;20117;-67
2021/05/20 11:39:56;;;;;;;0.40;0.32;;;;;;;12.87;65.62;95810.56;4989317;28;20377;-66
2021/05/20 11:42:22;;;;;;;3.10;0.47;;;;;;;12.55;64.42;95816.88;4988795;28;20042;-72
2021/05/20 11:44:48;;;;;;;1.52;0.43;;;;;;;12.09;69.53;95797.25;4989025;28;20435;-69
2021/05/20 11:47:14;;;;;;;0.30;0.22;;;;;;;12.29;70.00;95816.63;4991153;28;20701;-67
2021/05/20 11:49:40;;;;;;;0.30;0.30;;;;;;;11.70;67.63;95813.69;4988985;28;20030;-68
2021/05/20 11:52:08;;;;;;;0.30;0.20;;;;;;;11.61;66.99;95808.22;4987848;28;20515;-72